sensor_id;sensor_type;location;lat;lon;timestamp;pressure;altitude;pressure_sealevel;temperature;humidity
55217;BME280;41086;46.736;15.666;2023-06-26T00:00:05;98594.53;;;19.83;100.00
55217;BME280;41086;46.736;15.666;2023-06-26T00:02:33;98595.72;;;19.88;100.00
55217;BME280;41086;46.736;15.666;2023-06-26T00:05:00;98595.63;;;19.98;100.00
55217;BME280;41086;46.736;15.666;2023-06-26T00:07:29;98585.50;;;20.00;100.00
55217;BME280;41086;46.736;15.666;2023-06-26T00:09:57;98590.66;;;20.20;100.00
55217;BME280;41086;46.736;15.666;2023-06-26T00:12:25;98588.16;;;20.34;100.00
55217;BME280;41086;46.736;15.666;2023-06-26T00:14:52;98599.63;;;20.45;100.00
55217;BME280;41086;46.736;15.666;2023-06-26T00:17:20;98599.44;;;20.46;100.00
55217;BME280;41086;46.736;15.666;2023-06-26T00:19:47;98594.03;;;20.38;100.00
55217;BME280;41086;46.736;15.666;2023-06-26T00:22:13;98588.28;;;20.25;100.00
55217;BME280;41086;46.736;15.666;2023-06-26T00:24:40;98588.88;;;20.02;100.00
55217;BME280;41086;46.736;15.666;2023-06-26T00:27:07;98596.06;;;19.85;100.00
55217;BME280;41086;46.736;15.666;2023-06-26T00:29:34;98594.66;;;19.73;100.00
55217;BME280;41086;46.736;15.666;2023-06-26T00:32:01;98582.53;;;19.43;100.00
55217;BME280;41086;46.736;15.666;2023-06-26T00:34:28;98582.00;;;19.13;100.00
55217;BME280;41086;46.736;15.666;2023-06-26T00:36:55;98583.91;;;18.95;100.00
55217;BME280;41086;46.736;15.666;2023-06-26T00:39:23;98574.78;;;18.88;100.00
55217;BME280;41086;46.736;15.666;2023-06-26T00:41:52;98583.28;;;18.83;100.00
55217;BME280;41086;46.736;15.666;2023-06-26T00:44:22;98589.41;;;19.11;100.00
55217;BME280;41086;46.736;15.666;2023-06-26T00:46:50;98586.19;;;19.60;100.00
55217;BME280;41086;46.736;15.666;2023-06-26T00:49:16;98595.59;;;19.90;100.00
55217;BME280;41086;46.736;15.666;2023-06-26T00:51:43;98576.09;;;19.96;100.00
55217;BME280;41086;46.736;15.666;2023-06-26T00:54:10;98588.19;;;19.92;100.00
55217;BME280;41086;46.736;15.666;2023-06-26T00:56:38;98582.47;;;19.87;100.00
55217;BME280;41086;46.736;15.666;2023-06-26T00:59:05;98586.50;;;19.65;100.00
55217;BME280;41086;46.736;15.666;2023-06-26T01:01:32;98578.63;;;19.37;100.00
55217;BME280;41086;46.736;15.666;2023-06-26T01:03:58;98572.97;;;19.48;100.00
55217;BME280;41086;46.736;15.666;2023-06-26T01:06:27;98569.63;;;19.46;100.00
55217;BME280;41086;46.736;15.666;2023-06-26T01:08:59;98572.94;;;19.40;100.00
55217;BME280;41086;46.736;15.666;2023-06-26T01:11:26;98575.69;;;19.22;100.00
55217;BME280;41086;46.736;15.666;2023-06-26T01:13:53;98570.19;;;19.32;100.00
55217;BME280;41086;46.736;15.666;2023-06-26T01:16:23;98568.72;;;19.64;100.00
55217;BME280;41086;46.736;15.666;2023-06-26T01:18:51;98554.53;;;19.80;100.00
55217;BME280;41086;46.736;15.666;2023-06-26T01:21:18;98565.84;;;20.00;100.00
55217;BME280;41086;46.736;15.666;2023-06-26T01:23:58;98565.72;;;20.09;100.00
55217;BME280;41086;46.736;15.666;2023-06-26T01:26:32;98563.38;;;20.06;100.00
55217;BME280;41086;46.736;15.666;2023-06-26T01:29:03;98559.16;;;20.04;100.00
55217;BME280;41086;46.736;15.666;2023-06-26T01:31:31;98551.22;;;20.02;100.00
55217;BME280;41086;46.736;15.666;2023-06-26T01:34:01;98555.41;;;19.97;100.00
55217;BME280;41086;46.736;15.666;2023-06-26T01:36:28;98552.38;;;19.91;100.00
55217;BME280;41086;46.736;15.666;2023-06-26T01:38:55;98554.56;;;19.88;100.00
55217;BME280;41086;46.736;15.666;2023-06-26T01:41:23;98547.81;;;19.49;100.00
55217;BME280;41086;46.736;15.666;2023-06-26T01:49:37;98542.56;;;19.14;100.00
55217;BME280;41086;46.736;15.666;2023-06-26T01:54:57;98542.16;;;19.35;100.00
55217;BME280;41086;46.736;15.666;2023-06-26T01:57:26;98541.28;;;19.52;100.00
55217;BME280;41086;46.736;15.666;2023-06-26T01:59:54;98541.63;;;19.57;100.00
55217;BME280;41086;46.736;15.666;2023-06-26T02:02:23;98540.16;;;19.63;100.00
55217;BME280;41086;46.736;15.666;2023-06-26T02:04:51;98536.78;;;19.61;100.00
55217;BME280;41086;46.736;15.666;2023-06-26T02:07:18;98541.47;;;19.59;100.00
55217;BME280;41086;46.736;15.666;2023-06-26T02:09:45;98536.59;;;19.28;100.00
55217;BME280;41086;46.736;15.666;2023-06-26T02:12:12;98530.72;;;19.24;100.00
55217;BME280;41086;46.736;15.666;2023-06-26T02:14:39;98532.66;;;19.14;100.00
55217;BME280;41086;46.736;15.666;2023-06-26T02:17:05;98530.34;;;18.93;100.00
55217;BME280;41086;46.736;15.666;2023-06-26T02:19:33;98533.66;;;18.87;100.00
55217;BME280;41086;46.736;15.666;2023-06-26T02:22:00;98530.13;;;18.87;100.00
55217;BME280;41086;46.736;15.666;2023-06-26T02:24:26;98540.25;;;18.93;100.00
55217;BME280;41086;46.736;15.666;2023-06-26T02:26:57;98540.69;;;18.88;100.00
55217;BME280;41086;46.736;15.666;2023-06-26T02:29:24;98541.06;;;18.93;100.00
55217;BME280;41086;46.736;15.666;2023-06-26T02:31:51;98540.44;;;18.99;100.00
55217;BME280;41086;46.736;15.666;2023-06-26T02:34:17;98535.50;;;19.13;100.00
55217;BME280;41086;46.736;15.666;2023-06-26T02:36:44;98544.75;;;19.18;100.00
55217;BME280;41086;46.736;15.666;2023-06-26T02:39:12;98546.88;;;19.07;100.00
55217;BME280;41086;46.736;15.666;2023-06-26T02:41:40;98545.56;;;18.85;100.00
55217;BME280;41086;46.736;15.666;2023-06-26T02:44:07;98550.06;;;18.66;100.00
55217;BME280;41086;46.736;15.666;2023-06-26T02:46:34;98539.50;;;18.47;100.00
55217;BME280;41086;46.736;15.666;2023-06-26T02:49:01;98538.34;;;18.31;100.00
55217;BME280;41086;46.736;15.666;2023-06-26T02:51:28;98536.72;;;18.56;100.00
55217;BME280;41086;46.736;15.666;2023-06-26T02:53:57;98537.97;;;18.62;100.00
55217;BME280;41086;46.736;15.666;2023-06-26T02:56:24;98534.94;;;18.83;100.00
55217;BME280;41086;46.736;15.666;2023-06-26T02:58:56;98543.34;;;19.06;100.00
55217;BME280;41086;46.736;15.666;2023-06-26T03:01:24;98525.06;;;19.10;100.00
55217;BME280;41086;46.736;15.666;2023-06-26T03:03:51;98535.88;;;19.18;100.00
55217;BME280;41086;46.736;15.666;2023-06-26T03:06:19;98538.59;;;19.26;100.00
55217;BME280;41086;46.736;15.666;2023-06-26T03:08:46;98538.59;;;19.26;100.00
55217;BME280;41086;46.736;15.666;2023-06-26T03:11:14;98540.13;;;19.29;100.00
55217;BME280;41086;46.736;15.666;2023-06-26T03:13:41;98542.81;;;19.02;100.00
55217;BME280;41086;46.736;15.666;2023-06-26T03:16:08;98525.91;;;18.66;100.00
55217;BME280;41086;46.736;15.666;2023-06-26T03:18:35;98536.19;;;18.53;100.00
55217;BME280;41086;46.736;15.666;2023-06-26T03:21:02;98529.28;;;18.50;100.00
55217;BME280;41086;46.736;15.666;2023-06-26T03:23:29;98536.13;;;18.63;100.00
55217;BME280;41086;46.736;15.666;2023-06-26T03:25:57;98524.63;;;18.70;100.00
55217;BME280;41086;46.736;15.666;2023-06-26T03:28:26;98526.81;;;18.93;100.00
55217;BME280;41086;46.736;15.666;2023-06-26T03:30:53;98545.72;;;19.09;100.00
55217;BME280;41086;46.736;15.666;2023-06-26T03:33:20;98532.50;;;19.16;100.00
55217;BME280;41086;46.736;15.666;2023-06-26T03:35:47;98536.75;;;19.26;100.00
55217;BME280;41086;46.736;15.666;2023-06-26T03:38:14;98545.19;;;19.32;100.00
55217;BME280;41086;46.736;15.666;2023-06-26T03:40:43;98538.56;;;19.18;100.00
55217;BME280;41086;46.736;15.666;2023-06-26T03:43:10;98539.94;;;18.78;100.00
55217;BME280;41086;46.736;15.666;2023-06-26T03:45:44;98540.09;;;18.58;100.00
55217;BME280;41086;46.736;15.666;2023-06-26T03:48:13;98541.66;;;18.43;100.00
55217;BME280;41086;46.736;15.666;2023-06-26T03:50:41;98545.94;;;18.36;100.00
55217;BME280;41086;46.736;15.666;2023-06-26T03:53:08;98540.09;;;18.58;100.00
55217;BME280;41086;46.736;15.666;2023-06-26T03:55:34;98541.00;;;18.85;100.00
55217;BME280;41086;46.736;15.666;2023-06-26T03:58:03;98545.81;;;18.99;100.00
55217;BME280;41086;46.736;15.666;2023-06-26T04:00:31;98548.56;;;19.08;100.00
55217;BME280;41086;46.736;15.666;2023-06-26T04:02:58;98550.63;;;19.14;100.00
55217;BME280;41086;46.736;15.666;2023-06-26T04:05:25;98549.78;;;18.87;100.00
55217;BME280;41086;46.736;15.666;2023-06-26T04:07:52;98551.56;;;18.78;100.00
55217;BME280;41086;46.736;15.666;2023-06-26T04:10:19;98552.78;;;18.84;100.00
55217;BME280;41086;46.736;15.666;2023-06-26T04:12:48;98546.00;;;18.80;100.00
55217;BME280;41086;46.736;15.666;2023-06-26T04:15:15;98552.22;;;18.80;100.00
55217;BME280;41086;46.736;15.666;2023-06-26T04:17:41;98553.97;;;18.90;100.00
55217;BME280;41086;46.736;15.666;2023-06-26T04:20:08;98554.75;;;19.00;100.00
55217;BME280;41086;46.736;15.666;2023-06-26T04:22:35;98547.56;;;19.09;100.00
55217;BME280;41086;46.736;15.666;2023-06-26T04:25:03;98551.72;;;19.29;100.00
55217;BME280;41086;46.736;15.666;2023-06-26T04:27:30;98547.06;;;19.39;100.00
55217;BME280;41086;46.736;15.666;2023-06-26T04:29:57;98561.81;;;19.61;100.00
55217;BME280;41086;46.736;15.666;2023-06-26T04:32:24;98555.66;;;19.69;100.00
55217;BME280;41086;46.736;15.666;2023-06-26T04:34:50;98559.03;;;19.71;100.00
55217;BME280;41086;46.736;15.666;2023-06-26T04:37:17;98559.28;;;19.60;100.00
55217;BME280;41086;46.736;15.666;2023-06-26T04:39:44;98559.03;;;19.71;100.00
55217;BME280;41086;46.736;15.666;2023-06-26T04:42:11;98552.22;;;19.59;100.00
55217;BME280;41086;46.736;15.666;2023-06-26T04:44:38;98558.34;;;19.69;100.00
55217;BME280;41086;46.736;15.666;2023-06-26T04:47:08;98566.44;;;19.77;100.00
55217;BME280;41086;46.736;15.666;2023-06-26T04:49:35;98557.75;;;19.91;100.00
55217;BME280;41086;46.736;15.666;2023-06-26T04:52:04;98557.81;;;20.16;100.00
55217;BME280;41086;46.736;15.666;2023-06-26T04:54:31;98559.56;;;20.33;100.00
55217;BME280;41086;46.736;15.666;2023-06-26T04:56:58;98555.69;;;20.28;100.00
55217;BME280;41086;46.736;15.666;2023-06-26T04:59:26;98559.22;;;20.36;100.00
55217;BME280;41086;46.736;15.666;2023-06-26T05:01:53;98559.25;;;20.45;100.00
55217;BME280;41086;46.736;15.666;2023-06-26T05:04:20;98563.00;;;20.68;100.00
55217;BME280;41086;46.736;15.666;2023-06-26T05:06:47;98557.78;;;20.75;100.00
55217;BME280;41086;46.736;15.666;2023-06-26T05:09:13;98562.13;;;20.84;100.00
55217;BME280;41086;46.736;15.666;2023-06-26T05:11:40;98559.78;;;20.89;100.00
55217;BME280;41086;46.736;15.666;2023-06-26T05:14:07;98553.41;;;20.98;100.00
55217;BME280;41086;46.736;15.666;2023-06-26T05:16:35;98561.81;;;20.95;100.00
55217;BME280;41086;46.736;15.666;2023-06-26T05:19:02;98565.34;;;21.04;100.00
55217;BME280;41086;46.736;15.666;2023-06-26T05:21:29;98566.19;;;21.05;100.00
55217;BME280;41086;46.736;15.666;2023-06-26T05:23:57;98557.28;;;21.04;100.00
55217;BME280;41086;46.736;15.666;2023-06-26T05:26:25;98554.72;;;21.19;100.00
55217;BME280;41086;46.736;15.666;2023-06-26T05:28:53;98557.41;;;21.19;100.00
55217;BME280;41086;46.736;15.666;2023-06-26T05:31:20;98567.66;;;21.32;100.00
55217;BME280;41086;46.736;15.666;2023-06-26T05:33:47;98556.91;;;21.40;100.00
55217;BME280;41086;46.736;15.666;2023-06-26T05:36:16;98565.78;;;21.49;100.00
55217;BME280;41086;46.736;15.666;2023-06-26T05:38:43;98558.53;;;21.49;100.00
55217;BME280;41086;46.736;15.666;2023-06-26T05:41:10;98559.22;;;21.51;100.00
55217;BME280;41086;46.736;15.666;2023-06-26T05:43:36;98563.38;;;21.70;100.00
55217;BME280;41086;46.736;15.666;2023-06-26T05:46:03;98559.53;;;21.56;100.00
55217;BME280;41086;46.736;15.666;2023-06-26T05:48:30;98567.50;;;21.89;100.00
55217;BME280;41086;46.736;15.666;2023-06-26T05:50:57;98570.88;;;21.91;100.00
55217;BME280;41086;46.736;15.666;2023-06-26T05:53:24;98571.16;;;22.04;100.00
55217;BME280;41086;46.736;15.666;2023-06-26T05:55:51;98563.75;;;21.98;100.00
55217;BME280;41086;46.736;15.666;2023-06-26T05:58:19;98563.16;;;22.19;100.00
55217;BME280;41086;46.736;15.666;2023-06-26T06:00:46;98557.50;;;22.37;100.00
55217;BME280;41086;46.736;15.666;2023-06-26T06:03:13;98556.47;;;22.38;100.00
55217;BME280;41086;46.736;15.666;2023-06-26T06:05:40;98563.84;;;22.44;100.00
55217;BME280;41086;46.736;15.666;2023-06-26T06:08:07;98557.19;;;22.55;100.00
55217;BME280;41086;46.736;15.666;2023-06-26T06:10:34;98563.31;;;22.49;94.23
55217;BME280;41086;46.736;15.666;2023-06-26T06:13:01;98557.69;;;22.59;98.05
55217;BME280;41086;46.736;15.666;2023-06-26T06:15:28;98563.16;;;22.50;96.09
55217;BME280;41086;46.736;15.666;2023-06-26T06:17:56;98560.69;;;22.64;94.80
55217;BME280;41086;46.736;15.666;2023-06-26T06:20:24;98562.34;;;22.88;97.88
55217;BME280;41086;46.736;15.666;2023-06-26T06:22:51;98565.13;;;23.03;95.43
55217;BME280;41086;46.736;15.666;2023-06-26T06:25:18;98562.41;;;23.40;94.37
55217;BME280;41086;46.736;15.666;2023-06-26T06:27:44;98565.56;;;23.29;92.03
55217;BME280;41086;46.736;15.666;2023-06-26T06:30:11;98560.25;;;23.21;92.02
55217;BME280;41086;46.736;15.666;2023-06-26T06:32:38;98562.56;;;23.24;91.03
55217;BME280;41086;46.736;15.666;2023-06-26T06:35:06;98573.78;;;23.65;88.22
55217;BME280;41086;46.736;15.666;2023-06-26T06:37:37;98576.69;;;23.94;86.45
55217;BME280;41086;46.736;15.666;2023-06-26T06:40:05;98562.88;;;23.88;89.77
55217;BME280;41086;46.736;15.666;2023-06-26T06:42:33;98565.16;;;24.43;84.65
55217;BME280;41086;46.736;15.666;2023-06-26T06:45:02;98561.25;;;24.09;84.85
55217;BME280;41086;46.736;15.666;2023-06-26T06:47:29;98557.72;;;23.94;83.87
55217;BME280;41086;46.736;15.666;2023-06-26T06:49:56;98570.06;;;24.47;82.07
55217;BME280;41086;46.736;15.666;2023-06-26T06:52:23;98562.19;;;24.52;85.07
55217;BME280;41086;46.736;15.666;2023-06-26T06:54:53;98568.16;;;24.63;80.01
55217;BME280;41086;46.736;15.666;2023-06-26T06:57:21;98560.97;;;24.76;82.22
55217;BME280;41086;46.736;15.666;2023-06-26T06:59:48;98555.16;;;24.80;78.88
55217;BME280;41086;46.736;15.666;2023-06-26T07:02:17;98560.16;;;24.76;77.11
55217;BME280;41086;46.736;15.666;2023-06-26T07:04:44;98564.44;;;25.41;77.29
55217;BME280;41086;46.736;15.666;2023-06-26T07:07:12;98570.81;;;25.55;73.46
55217;BME280;41086;46.736;15.666;2023-06-26T07:09:40;98567.41;;;26.23;72.01
55217;BME280;41086;46.736;15.666;2023-06-26T07:12:07;98567.00;;;26.33;70.79
55217;BME280;41086;46.736;15.666;2023-06-26T07:14:34;98561.28;;;26.75;69.36
55217;BME280;41086;46.736;15.666;2023-06-26T07:17:01;98558.16;;;26.92;69.20
55217;BME280;41086;46.736;15.666;2023-06-26T07:19:27;98563.41;;;27.07;70.85
55217;BME280;41086;46.736;15.666;2023-06-26T07:21:54;98561.91;;;26.71;69.55
55217;BME280;41086;46.736;15.666;2023-06-26T07:24:21;98559.00;;;26.86;70.29
55217;BME280;41086;46.736;15.666;2023-06-26T07:26:48;98560.25;;;27.03;67.70
55217;BME280;41086;46.736;15.666;2023-06-26T07:29:14;98560.91;;;27.25;67.08
55217;BME280;41086;46.736;15.666;2023-06-26T07:31:41;98556.22;;;27.72;65.93
55217;BME280;41086;46.736;15.666;2023-06-26T07:34:08;98555.72;;;28.02;65.06
55217;BME280;41086;46.736;15.666;2023-06-26T07:36:35;98554.28;;;27.93;65.42
55217;BME280;41086;46.736;15.666;2023-06-26T07:39:02;98559.00;;;27.32;64.77
55217;BME280;41086;46.736;15.666;2023-06-26T07:41:28;98559.63;;;27.48;64.54
55217;BME280;41086;46.736;15.666;2023-06-26T07:43:58;98560.03;;;27.58;64.05
55217;BME280;41086;46.736;15.666;2023-06-26T07:46:25;98552.25;;;28.26;60.83
55217;BME280;41086;46.736;15.666;2023-06-26T07:48:53;98554.69;;;28.80;58.99
55217;BME280;41086;46.736;15.666;2023-06-26T07:51:20;98557.38;;;29.36;57.42
55217;BME280;41086;46.736;15.666;2023-06-26T07:53:47;98557.41;;;29.11;58.67
55217;BME280;41086;46.736;15.666;2023-06-26T07:56:13;98555.00;;;28.97;59.77
55217;BME280;41086;46.736;15.666;2023-06-26T07:58:40;98556.34;;;29.37;59.66
55217;BME280;41086;46.736;15.666;2023-06-26T08:01:07;98558.50;;;29.04;55.44
55217;BME280;41086;46.736;15.666;2023-06-26T08:03:34;98544.63;;;28.42;52.31
55217;BME280;41086;46.736;15.666;2023-06-26T08:06:02;98552.19;;;29.03;50.14
55217;BME280;41086;46.736;15.666;2023-06-26T08:08:29;98551.03;;;29.17;46.28
55217;BME280;41086;46.736;15.666;2023-06-26T08:10:56;98552.03;;;29.05;47.97
55217;BME280;41086;46.736;15.666;2023-06-26T08:13:23;98556.00;;;29.02;46.23
55217;BME280;41086;46.736;15.666;2023-06-26T08:15:50;98564.66;;;28.92;45.65
55217;BME280;41086;46.736;15.666;2023-06-26T08:18:18;98567.03;;;29.14;46.70
55217;BME280;41086;46.736;15.666;2023-06-26T08:20:45;98558.72;;;29.02;48.29
55217;BME280;41086;46.736;15.666;2023-06-26T08:23:11;98557.63;;;28.78;45.59
55217;BME280;41086;46.736;15.666;2023-06-26T08:25:38;98568.41;;;29.48;45.95
55217;BME280;41086;46.736;15.666;2023-06-26T08:28:05;98561.66;;;29.07;45.49
55217;BME280;41086;46.736;15.666;2023-06-26T08:30:32;98574.44;;;29.07;44.57
55217;BME280;41086;46.736;15.666;2023-06-26T08:32:59;98562.25;;;29.09;46.96
55217;BME280;41086;46.736;15.666;2023-06-26T08:35:26;98570.84;;;29.13;46.27
55217;BME280;41086;46.736;15.666;2023-06-26T08:37:52;98556.66;;;28.98;47.38
55217;BME280;41086;46.736;15.666;2023-06-26T08:40:21;98570.41;;;29.59;46.21
55217;BME280;41086;46.736;15.666;2023-06-26T08:42:48;98569.22;;;30.11;44.47
55217;BME280;41086;46.736;15.666;2023-06-26T08:45:19;98568.22;;;30.23;44.08
55217;BME280;41086;46.736;15.666;2023-06-26T08:47:48;98561.38;;;30.93;43.54
55217;BME280;41086;46.736;15.666;2023-06-26T08:50:19;98558.03;;;30.61;41.12
55217;BME280;41086;46.736;15.666;2023-06-26T08:52:59;98555.41;;;30.06;43.66
55217;BME280;41086;46.736;15.666;2023-06-26T08:55:31;98556.25;;;30.24;41.36
55217;BME280;41086;46.736;15.666;2023-06-26T08:57:59;98542.84;;;30.65;39.52
55217;BME280;41086;46.736;15.666;2023-06-26T09:00:28;98549.88;;;31.03;36.43
55217;BME280;41086;46.736;15.666;2023-06-26T09:02:55;98553.81;;;31.54;38.99
55217;BME280;41086;46.736;15.666;2023-06-26T09:05:22;98550.47;;;31.75;38.16
55217;BME280;41086;46.736;15.666;2023-06-26T09:07:49;98542.88;;;32.58;38.35
55217;BME280;41086;46.736;15.666;2023-06-26T09:10:16;98542.97;;;32.97;37.17
55217;BME280;41086;46.736;15.666;2023-06-26T09:12:46;98543.94;;;33.03;37.53
55217;BME280;41086;46.736;15.666;2023-06-26T09:15:20;98532.31;;;32.67;37.16
55217;BME280;41086;46.736;15.666;2023-06-26T09:17:48;98533.38;;;33.12;37.29
55217;BME280;41086;46.736;15.666;2023-06-26T09:20:15;98537.50;;;33.48;37.63
55217;BME280;41086;46.736;15.666;2023-06-26T09:22:43;98531.91;;;33.60;37.42
55217;BME280;41086;46.736;15.666;2023-06-26T09:25:13;98534.88;;;33.97;36.63
55217;BME280;41086;46.736;15.666;2023-06-26T09:27:42;98533.69;;;34.10;35.39
55217;BME280;41086;46.736;15.666;2023-06-26T09:30:10;98542.38;;;34.24;34.28
55217;BME280;41086;46.736;15.666;2023-06-26T09:32:37;98541.81;;;34.49;34.43
55217;BME280;41086;46.736;15.666;2023-06-26T09:35:04;98534.28;;;34.61;35.66
55217;BME280;41086;46.736;15.666;2023-06-26T09:37:34;98535.38;;;34.92;36.08
55217;BME280;41086;46.736;15.666;2023-06-26T09:40:01;98524.78;;;34.03;34.30
55217;BME280;41086;46.736;15.666;2023-06-26T09:42:29;98525.41;;;33.66;35.49
55217;BME280;41086;46.736;15.666;2023-06-26T09:44:55;98523.09;;;33.58;35.00
55217;BME280;41086;46.736;15.666;2023-06-26T09:47:23;98518.63;;;34.12;33.90
55217;BME280;41086;46.736;15.666;2023-06-26T09:49:51;98519.16;;;34.14;33.64
55217;BME280;41086;46.736;15.666;2023-06-26T09:52:21;98519.47;;;34.40;32.75
55217;BME280;41086;46.736;15.666;2023-06-26T09:55:07;98518.91;;;34.65;33.29
55217;BME280;41086;46.736;15.666;2023-06-26T09:57:34;98529.28;;;34.58;32.25
55217;BME280;41086;46.736;15.666;2023-06-26T10:00:02;98520.31;;;33.74;32.25
55217;BME280;41086;46.736;15.666;2023-06-26T10:02:37;98522.69;;;34.10;33.24
55217;BME280;41086;46.736;15.666;2023-06-26T10:05:05;98521.97;;;33.75;34.94
55217;BME280;41086;46.736;15.666;2023-06-26T10:07:32;98515.13;;;32.88;35.27
55217;BME280;41086;46.736;15.666;2023-06-26T10:10:00;98513.91;;;33.52;36.25
55217;BME280;41086;46.736;15.666;2023-06-26T10:12:30;98518.78;;;34.06;34.60
55217;BME280;41086;46.736;15.666;2023-06-26T10:14:58;98509.56;;;34.17;34.70
55217;BME280;41086;46.736;15.666;2023-06-26T10:17:32;98514.88;;;34.51;32.89
55217;BME280;41086;46.736;15.666;2023-06-26T10:20:02;98513.53;;;35.07;33.25
55217;BME280;41086;46.736;15.666;2023-06-26T10:22:34;98515.34;;;35.34;30.83
55217;BME280;41086;46.736;15.666;2023-06-26T10:25:04;98506.09;;;35.56;32.08
55217;BME280;41086;46.736;15.666;2023-06-26T10:27:36;98501.25;;;35.25;32.57
55217;BME280;41086;46.736;15.666;2023-06-26T10:30:09;98509.34;;;35.42;32.43
55217;BME280;41086;46.736;15.666;2023-06-26T10:32:36;98511.69;;;34.59;32.77
55217;BME280;41086;46.736;15.666;2023-06-26T10:35:06;98510.88;;;34.58;32.36
55217;BME280;41086;46.736;15.666;2023-06-26T10:37:43;98507.56;;;34.34;33.47
55217;BME280;41086;46.736;15.666;2023-06-26T10:40:21;98500.16;;;35.26;35.14
55217;BME280;41086;46.736;15.666;2023-06-26T10:42:48;98506.84;;;35.41;31.50
55217;BME280;41086;46.736;15.666;2023-06-26T10:45:18;98498.13;;;35.54;31.46
55217;BME280;41086;46.736;15.666;2023-06-26T10:47:47;98493.91;;;35.89;32.05
55217;BME280;41086;46.736;15.666;2023-06-26T10:55:58;98504.13;;;36.04;29.50
55217;BME280;41086;46.736;15.666;2023-06-26T11:01:25;98495.84;;;35.99;31.44
55217;BME280;41086;46.736;15.666;2023-06-26T11:06:25;98491.53;;;36.23;29.38
55217;BME280;41086;46.736;15.666;2023-06-26T11:08:54;98492.19;;;36.66;32.26
55217;BME280;41086;46.736;15.666;2023-06-26T11:14:22;98498.81;;;36.60;29.16
55217;BME280;41086;46.736;15.666;2023-06-26T11:16:51;98495.78;;;36.67;31.57
55217;BME280;41086;46.736;15.666;2023-06-26T11:19:19;98493.84;;;36.57;30.49
55217;BME280;41086;46.736;15.666;2023-06-26T11:21:47;98492.16;;;36.56;28.60
55217;BME280;41086;46.736;15.666;2023-06-26T11:24:14;98493.84;;;36.62;29.55
55217;BME280;41086;46.736;15.666;2023-06-26T11:26:42;98495.97;;;36.39;29.92
55217;BME280;41086;46.736;15.666;2023-06-26T11:29:10;98489.84;;;36.12;29.11
55217;BME280;41086;46.736;15.666;2023-06-26T11:31:38;98486.13;;;36.54;28.65
55217;BME280;41086;46.736;15.666;2023-06-26T11:34:10;98494.66;;;36.83;28.12
55217;BME280;41086;46.736;15.666;2023-06-26T11:36:40;98492.72;;;37.30;28.75
55217;BME280;41086;46.736;15.666;2023-06-26T11:39:09;98488.03;;;37.25;28.95
55217;BME280;41086;46.736;15.666;2023-06-26T11:41:38;98485.78;;;37.42;27.40
55217;BME280;41086;46.736;15.666;2023-06-26T11:44:08;98486.09;;;37.31;27.91
55217;BME280;41086;46.736;15.666;2023-06-26T11:46:37;98481.06;;;37.58;29.71
55217;BME280;41086;46.736;15.666;2023-06-26T11:49:07;98474.22;;;37.35;30.64
55217;BME280;41086;46.736;15.666;2023-06-26T11:51:35;98478.63;;;37.52;29.23
55217;BME280;41086;46.736;15.666;2023-06-26T11:54:05;98473.34;;;37.55;29.29
55217;BME280;41086;46.736;15.666;2023-06-26T11:56:32;98465.69;;;36.70;28.88
55217;BME280;41086;46.736;15.666;2023-06-26T12:01:40;98468.72;;;36.84;27.58
55217;BME280;41086;46.736;15.666;2023-06-26T12:04:10;98467.34;;;37.12;27.17
55217;BME280;41086;46.736;15.666;2023-06-26T12:06:39;98469.53;;;37.31;30.56
55217;BME280;41086;46.736;15.666;2023-06-26T12:09:10;98470.00;;;37.63;27.87
55217;BME280;41086;46.736;15.666;2023-06-26T12:11:39;98480.16;;;37.78;28.91
55217;BME280;41086;46.736;15.666;2023-06-26T12:14:07;98469.25;;;38.07;28.11
55217;BME280;41086;46.736;15.666;2023-06-26T12:16:35;98465.88;;;38.21;28.30
55217;BME280;41086;46.736;15.666;2023-06-26T12:19:04;98471.13;;;38.22;26.83
55217;BME280;41086;46.736;15.666;2023-06-26T12:24:04;98463.56;;;37.78;27.11
55217;BME280;41086;46.736;15.666;2023-06-26T12:26:31;98452.84;;;37.66;27.15
55217;BME280;41086;46.736;15.666;2023-06-26T12:31:33;98462.72;;;38.38;29.00
55217;BME280;41086;46.736;15.666;2023-06-26T12:34:00;98460.88;;;37.68;25.95
55217;BME280;41086;46.736;15.666;2023-06-26T12:36:27;98457.16;;;37.98;26.59
55217;BME280;41086;46.736;15.666;2023-06-26T12:38:54;98453.66;;;37.72;26.79
55217;BME280;41086;46.736;15.666;2023-06-26T12:41:24;98459.13;;;37.87;25.90
55217;BME280;41086;46.736;15.666;2023-06-26T12:43:56;98453.19;;;37.50;26.15
55217;BME280;41086;46.736;15.666;2023-06-26T12:46:35;98459.44;;;37.76;26.30
55217;BME280;41086;46.736;15.666;2023-06-26T12:49:02;98449.63;;;38.09;26.80
55217;BME280;41086;46.736;15.666;2023-06-26T12:51:37;98454.81;;;38.21;27.87
55217;BME280;41086;46.736;15.666;2023-06-26T12:54:04;98451.50;;;38.19;26.63
55217;BME280;41086;46.736;15.666;2023-06-26T12:56:32;98444.59;;;38.61;28.05
55217;BME280;41086;46.736;15.666;2023-06-26T12:58:59;98444.63;;;38.11;26.45
55217;BME280;41086;46.736;15.666;2023-06-26T13:01:28;98438.25;;;37.51;27.22
55217;BME280;41086;46.736;15.666;2023-06-26T13:03:55;98420.50;;;37.62;27.19
55217;BME280;41086;46.736;15.666;2023-06-26T13:06:22;98440.84;;;37.86;27.53
55217;BME280;41086;46.736;15.666;2023-06-26T13:08:49;98445.38;;;37.67;26.44
55217;BME280;41086;46.736;15.666;2023-06-26T13:11:16;98447.28;;;37.72;25.41
55217;BME280;41086;46.736;15.666;2023-06-26T13:13:43;98439.41;;;38.04;27.67
55217;BME280;41086;46.736;15.666;2023-06-26T13:16:17;98440.56;;;37.93;25.79
55217;BME280;41086;46.736;15.666;2023-06-26T13:18:45;98438.91;;;38.42;26.40